createdAt,value
2019-06-26T00:01:30.949Z,3.23
2019-06-26T00:04:00.610Z,3.73
2019-06-26T00:06:30.287Z,3.53
2019-06-26T00:08:59.944Z,3.20
2019-06-26T00:11:29.603Z,2.67
2019-06-26T00:13:59.212Z,2.93
2019-06-26T00:16:28.812Z,4.03
2019-06-26T00:18:58.395Z,2.90
2019-06-26T00:21:28.052Z,3.93
2019-06-26T00:23:57.705Z,3.93
2019-06-26T00:26:27.315Z,2.97
2019-06-26T00:28:56.859Z,3.03
2019-06-26T00:31:26.479Z,3.07
2019-06-26T00:33:56.151Z,4.03
2019-06-26T00:36:25.972Z,3.10
2019-06-26T00:38:55.585Z,3.93
2019-06-26T00:41:25.200Z,4.63
2019-06-26T00:43:54.699Z,4.03
2019-06-26T00:46:24.300Z,4.07
2019-06-26T00:48:53.955Z,3.83
2019-06-26T00:51:23.625Z,4.27
2019-06-26T00:53:53.288Z,6.10
2019-06-26T00:56:22.886Z,4.13
2019-06-26T00:58:52.477Z,4.93
2019-06-26T01:01:22.061Z,4.13
2019-06-26T01:03:53.404Z,3.67
2019-06-26T01:06:41.188Z,2.90
2019-06-26T01:09:11.517Z,4.40
2019-06-26T01:11:41.195Z,3.50
2019-06-26T01:14:10.906Z,3.40
2019-06-26T01:16:40.495Z,3.80
2019-06-26T01:19:10.258Z,3.30
2019-06-26T01:21:39.853Z,4.20
2019-06-26T01:24:09.504Z,3.90
2019-06-26T01:26:39.283Z,4.27
2019-06-26T01:29:21.439Z,3.33
2019-06-26T01:31:51.007Z,4.90
2019-06-26T01:34:20.681Z,4.37
2019-06-26T01:36:50.260Z,3.70
2019-06-26T01:39:19.864Z,4.53
2019-06-26T01:41:49.506Z,4.67
2019-06-26T01:44:19.195Z,3.40
2019-06-26T01:46:48.856Z,4.77
2019-06-26T01:49:18.520Z,3.90
2019-06-26T01:51:48.206Z,4.40
2019-06-26T01:54:17.795Z,3.70
2019-06-26T01:56:47.399Z,5.77
2019-06-26T01:59:16.986Z,5.97
2019-06-26T02:01:46.559Z,3.57
2019-06-26T02:04:16.235Z,5.03
2019-06-26T02:06:45.835Z,3.77
2019-06-26T02:09:15.415Z,5.33
2019-06-26T02:11:45.065Z,4.03
2019-06-26T02:14:30.127Z,4.27
2019-06-26T02:16:45.940Z,5.27
2019-06-26T02:19:20.044Z,4.07
2019-06-26T02:21:50.613Z,5.73
2019-06-26T02:24:20.345Z,5.83
2019-06-26T02:26:50.237Z,4.67
2019-06-26T02:29:19.900Z,4.57
2019-06-26T02:31:49.513Z,3.40
2019-06-26T02:34:19.177Z,3.77
2019-06-26T02:36:48.768Z,7.00
2019-06-26T02:39:18.359Z,4.00
2019-06-26T02:41:48.074Z,4.00
2019-06-26T02:44:17.679Z,3.90
2019-06-26T02:46:47.323Z,5.47
2019-06-26T02:49:16.907Z,4.20
2019-06-26T02:51:46.447Z,4.33
2019-06-26T02:54:16.084Z,3.80
2019-06-26T02:56:45.683Z,4.73
2019-06-26T02:59:15.369Z,5.43
2019-06-26T03:01:44.983Z,5.03
2019-06-26T03:04:14.568Z,3.80
2019-06-26T03:06:44.229Z,5.80
2019-06-26T03:09:13.793Z,4.20
2019-06-26T03:11:43.470Z,4.10
2019-06-26T03:14:13.098Z,4.90
2019-06-26T03:16:42.718Z,5.20
2019-06-26T03:19:12.606Z,4.27
2019-06-26T03:21:42.248Z,4.70
2019-06-26T03:24:11.882Z,5.07
2019-06-26T03:26:41.462Z,4.20
2019-06-26T03:29:11.058Z,5.33
2019-06-26T03:31:40.723Z,4.63
2019-06-26T03:34:10.339Z,11.80
2019-06-26T03:36:40.015Z,4.80
2019-06-26T03:39:09.642Z,7.03
2019-06-26T03:41:39.249Z,4.23
2019-06-26T03:44:08.839Z,4.47
2019-06-26T03:46:38.533Z,7.20
2019-06-26T03:49:08.113Z,5.67
2019-06-26T03:51:37.855Z,8.20
2019-06-26T03:54:07.577Z,8.00
2019-06-26T03:56:37.245Z,5.03
2019-06-26T03:59:06.905Z,3.97
2019-06-26T04:01:36.515Z,5.13
2019-06-26T04:04:06.167Z,6.03
2019-06-26T04:06:35.721Z,6.50
2019-06-26T04:09:06.777Z,4.80
2019-06-26T04:11:36.414Z,4.37
2019-06-26T04:14:06.115Z,6.53
2019-06-26T04:16:35.809Z,5.83
2019-06-26T04:19:05.523Z,7.20
2019-06-26T04:21:35.129Z,6.20
2019-06-26T04:24:04.708Z,4.63
2019-06-26T04:26:34.335Z,6.03
2019-06-26T04:29:04.181Z,5.47
2019-06-26T04:31:33.873Z,6.53
2019-06-26T04:34:03.539Z,6.00
2019-06-26T04:36:33.301Z,4.37
2019-06-26T04:39:03.600Z,4.67
2019-06-26T04:41:33.233Z,6.70
2019-06-26T04:44:02.840Z,5.90
2019-06-26T04:46:32.567Z,4.60
2019-06-26T04:49:02.097Z,5.33
2019-06-26T04:51:31.722Z,7.10
2019-06-26T04:54:01.458Z,5.30
2019-06-26T04:56:31.167Z,4.60
2019-06-26T04:59:00.847Z,7.37
2019-06-26T05:01:30.438Z,4.93
2019-06-26T05:04:00.103Z,6.17
2019-06-26T05:06:29.767Z,5.70
2019-06-26T05:08:59.380Z,5.60
2019-06-26T05:11:29.029Z,4.97
2019-06-26T05:13:58.559Z,4.83
2019-06-26T05:16:28.154Z,5.50
2019-06-26T05:18:57.722Z,5.20
2019-06-26T05:21:27.390Z,5.30
2019-06-26T05:23:57.031Z,6.23
2019-06-26T05:26:26.575Z,6.13
2019-06-26T05:28:56.173Z,5.47
2019-06-26T05:31:25.811Z,8.03
2019-06-26T05:33:55.335Z,5.37
2019-06-26T05:36:24.907Z,5.30
2019-06-26T05:38:54.627Z,5.33
2019-06-26T05:41:24.277Z,6.07
2019-06-26T05:43:53.916Z,6.73
2019-06-26T05:46:31.103Z,4.70
2019-06-26T05:48:54.791Z,4.40
2019-06-26T05:51:24.436Z,5.20
2019-06-26T05:53:54.044Z,6.60
2019-06-26T05:56:23.626Z,6.27
2019-06-26T05:58:53.214Z,5.17
2019-06-26T06:01:22.833Z,4.03
2019-06-26T06:03:52.400Z,5.00
2019-06-26T06:06:21.993Z,4.33
2019-06-26T06:08:51.725Z,4.13
2019-06-26T06:11:21.357Z,6.47
2019-06-26T06:13:51.031Z,5.77
2019-06-26T06:16:21.696Z,5.10
2019-06-26T06:18:51.292Z,4.00
2019-06-26T06:21:20.978Z,4.63
2019-06-26T06:23:50.547Z,4.30
2019-06-26T06:26:20.244Z,6.10
2019-06-26T06:28:49.911Z,3.97
2019-06-26T06:31:19.490Z,5.13
2019-06-26T06:33:49.023Z,4.40
2019-06-26T06:36:18.834Z,4.40
2019-06-26T06:38:48.433Z,3.77
2019-06-26T06:41:18.039Z,4.10
2019-06-26T06:43:47.606Z,4.20
2019-06-26T06:46:17.221Z,3.87
2019-06-26T06:48:46.847Z,3.90
2019-06-26T06:51:16.496Z,4.73
2019-06-26T06:53:46.075Z,4.00
2019-06-26T06:56:15.815Z,4.03
2019-06-26T06:58:46.435Z,4.57
2019-06-26T07:01:16.110Z,3.70
2019-06-26T07:03:45.621Z,3.43
2019-06-26T07:06:15.369Z,4.23
2019-06-26T07:08:45.031Z,4.03
2019-06-26T07:11:14.690Z,5.20
2019-06-26T07:13:44.296Z,3.43
2019-06-26T07:16:13.905Z,5.07
2019-06-26T07:18:43.528Z,3.30
2019-06-26T07:21:13.112Z,5.73
2019-06-26T07:23:42.787Z,3.60
2019-06-26T07:26:13.421Z,5.13
2019-06-26T07:28:43.216Z,5.83
2019-06-26T07:31:12.885Z,4.43
2019-06-26T07:33:42.548Z,3.23
2019-06-26T07:36:12.131Z,4.20
2019-06-26T07:38:41.680Z,4.93
2019-06-26T07:41:11.337Z,3.30
2019-06-26T07:43:40.917Z,3.07
2019-06-26T07:46:10.631Z,4.00
2019-06-26T07:48:40.155Z,4.77
2019-06-26T07:51:09.852Z,4.37
2019-06-26T07:53:39.423Z,3.70
2019-06-26T07:56:09.035Z,4.30
2019-06-26T07:58:38.726Z,5.57
2019-06-26T08:01:08.303Z,3.43
2019-06-26T08:03:38.007Z,5.23
2019-06-26T08:06:07.617Z,4.57
2019-06-26T08:08:37.273Z,5.00
2019-06-26T08:11:07.955Z,4.23
2019-06-26T08:13:37.556Z,4.40
2019-06-26T08:16:07.159Z,4.73
2019-06-26T08:18:36.805Z,3.97
2019-06-26T08:21:12.574Z,3.47
2019-06-26T08:23:37.674Z,3.57
2019-06-26T08:26:07.410Z,3.57
2019-06-26T08:28:36.944Z,3.90
2019-06-26T08:31:06.537Z,2.97
2019-06-26T08:33:36.196Z,4.93
2019-06-26T08:36:06.924Z,6.47
2019-06-26T08:38:36.447Z,4.90
2019-06-26T08:41:06.056Z,3.63
2019-06-26T08:43:35.777Z,3.53
2019-06-26T08:46:05.369Z,4.43
2019-06-26T08:48:39.938Z,5.67
2019-06-26T08:51:06.258Z,4.03
2019-06-26T08:53:36.081Z,5.47
2019-06-26T08:56:05.775Z,6.93
2019-06-26T08:58:35.301Z,3.20
2019-06-26T09:01:04.909Z,4.37
2019-06-26T09:03:34.475Z,3.50
2019-06-26T09:06:04.065Z,4.63
2019-06-26T09:08:33.713Z,3.40
2019-06-26T09:11:03.399Z,4.30
2019-06-26T09:13:33.106Z,3.73
2019-06-26T09:16:02.686Z,3.10
2019-06-26T09:18:35.952Z,4.10
2019-06-26T09:21:03.583Z,3.40
2019-06-26T09:23:33.245Z,3.40
2019-06-26T09:26:04.208Z,4.43
2019-06-26T09:28:33.794Z,4.90
2019-06-26T09:31:03.387Z,3.20
2019-06-26T09:33:33.041Z,4.90
2019-06-26T09:36:02.658Z,6.77
2019-06-26T09:38:32.219Z,3.87
2019-06-26T09:41:01.745Z,5.53
2019-06-26T09:43:31.326Z,4.13
2019-06-26T09:46:00.922Z,4.03
2019-06-26T09:48:30.666Z,3.30
2019-06-26T09:51:00.259Z,5.17
2019-06-26T09:53:45.866Z,3.40
2019-06-26T09:56:01.200Z,3.40
2019-06-26T09:58:30.871Z,4.23
2019-06-26T10:01:00.418Z,4.60
2019-06-26T10:03:29.961Z,4.83
2019-06-26T10:05:59.607Z,3.87
2019-06-26T10:08:29.266Z,3.47
2019-06-26T10:10:58.834Z,3.83
2019-06-26T10:13:28.399Z,6.37
2019-06-26T10:16:00.434Z,4.37
2019-06-26T10:18:29.411Z,3.50
2019-06-26T10:20:58.994Z,3.87
2019-06-26T10:23:28.742Z,5.37
2019-06-26T10:25:58.412Z,4.23
2019-06-26T10:28:28.013Z,7.00
2019-06-26T10:30:57.721Z,15.87
2019-06-26T10:33:27.366Z,4.10
2019-06-26T10:35:57.056Z,4.10
2019-06-26T10:38:26.687Z,4.60
2019-06-26T10:40:56.222Z,4.77
2019-06-26T10:43:25.886Z,4.80
2019-06-26T10:45:55.473Z,4.60
2019-06-26T10:48:25.042Z,3.80
2019-06-26T10:50:58.383Z,3.37
2019-06-26T10:53:25.942Z,3.63
2019-06-26T10:55:55.636Z,3.83
2019-06-26T10:58:25.228Z,3.30
2019-06-26T11:00:54.909Z,3.97
2019-06-26T11:03:24.511Z,3.53
2019-06-26T11:05:54.125Z,3.73
2019-06-26T11:08:23.736Z,3.60
2019-06-26T11:10:53.365Z,3.37
2019-06-26T11:13:22.900Z,3.97
2019-06-26T11:15:52.565Z,4.77
2019-06-26T11:18:22.217Z,4.00
2019-06-26T11:20:51.814Z,4.00
2019-06-26T11:23:21.392Z,3.60
2019-06-26T11:25:50.995Z,3.90
2019-06-26T11:28:20.591Z,4.30
2019-06-26T11:30:50.247Z,4.20
2019-06-26T11:33:19.888Z,4.93
2019-06-26T11:35:49.491Z,5.37
2019-06-26T11:38:19.108Z,4.97
2019-06-26T11:40:49.038Z,3.27
2019-06-26T11:43:18.723Z,3.50
2019-06-26T11:45:48.378Z,4.13
2019-06-26T11:48:18.139Z,3.97
2019-06-26T11:50:47.729Z,4.03
2019-06-26T11:53:17.331Z,4.97
2019-06-26T11:55:46.987Z,4.20
2019-06-26T11:58:17.571Z,3.63
2019-06-26T12:00:47.313Z,5.10
2019-06-26T12:03:16.858Z,4.33
2019-06-26T12:05:46.409Z,6.10
2019-06-26T12:08:18.415Z,4.17
2019-06-26T12:10:47.323Z,4.40
2019-06-26T12:13:16.946Z,4.50
2019-06-26T12:15:46.503Z,4.70
2019-06-26T12:18:16.109Z,4.53
2019-06-26T12:20:45.699Z,3.80
2019-06-26T12:23:15.276Z,5.20
2019-06-26T12:25:44.873Z,4.37
2019-06-26T12:28:14.565Z,3.93
2019-06-26T12:30:44.216Z,4.10
2019-06-26T12:33:13.888Z,4.47
2019-06-26T12:35:43.483Z,4.70
2019-06-26T12:38:13.251Z,6.03
2019-06-26T12:40:42.866Z,4.10
2019-06-26T12:43:12.467Z,4.23
2019-06-26T12:45:42.084Z,4.83
2019-06-26T12:48:11.693Z,4.57
2019-06-26T12:50:41.267Z,4.20
2019-06-26T12:53:10.875Z,4.20
2019-06-26T12:55:40.462Z,5.00
2019-06-26T12:58:13.973Z,5.30
2019-06-26T13:00:41.287Z,5.93
2019-06-26T13:03:10.936Z,4.63
2019-06-26T13:05:40.537Z,6.07
2019-06-26T13:08:10.256Z,4.50
2019-06-26T13:10:49.534Z,5.83
2019-06-26T13:13:11.067Z,6.20
2019-06-26T13:15:40.675Z,5.03
2019-06-26T13:18:10.276Z,4.93
2019-06-26T13:20:52.090Z,4.90
2019-06-26T13:23:14.638Z,5.10
2019-06-26T13:25:42.269Z,4.60
2019-06-26T13:28:11.860Z,4.60
2019-06-26T13:30:42.529Z,4.80
2019-06-26T13:33:12.074Z,4.80
2019-06-26T13:35:41.677Z,5.67
2019-06-26T13:38:11.287Z,4.40
2019-06-26T13:40:41.340Z,4.63
2019-06-26T13:43:11.165Z,4.90
2019-06-26T13:45:40.757Z,4.93
2019-06-26T13:48:10.369Z,5.07
2019-06-26T13:50:39.931Z,5.87
2019-06-26T13:53:09.593Z,5.00
2019-06-26T13:55:39.121Z,5.67
2019-06-26T13:58:08.742Z,5.77
2019-06-26T14:00:38.352Z,7.00
2019-06-26T14:03:08.032Z,6.07
2019-06-26T14:05:37.702Z,5.63
2019-06-26T14:08:07.317Z,5.47
2019-06-26T14:10:36.909Z,5.13
2019-06-26T14:13:06.592Z,5.77
2019-06-26T14:15:36.195Z,5.13
2019-06-26T14:18:05.798Z,6.33
2019-06-26T14:20:35.399Z,5.73
2019-06-26T14:23:04.982Z,6.90
2019-06-26T14:25:34.572Z,6.87
2019-06-26T14:28:04.261Z,7.23
2019-06-26T14:30:33.876Z,6.90
2019-06-26T14:33:03.455Z,7.47
2019-06-26T14:35:33.145Z,7.67
2019-06-26T14:38:02.757Z,6.90
2019-06-26T14:40:32.435Z,7.90
2019-06-26T14:43:02.100Z,7.60
2019-06-26T14:45:31.764Z,7.13
2019-06-26T14:48:01.279Z,7.67
2019-06-26T14:50:30.860Z,7.30
2019-06-26T14:53:00.550Z,8.07
2019-06-26T14:55:31.315Z,8.23
2019-06-26T14:58:00.876Z,7.80
2019-06-26T15:00:30.513Z,7.73
2019-06-26T15:03:00.161Z,7.30
2019-06-26T15:05:29.817Z,7.83
2019-06-26T15:07:59.473Z,7.53
2019-06-26T15:10:29.088Z,8.53
2019-06-26T15:12:58.696Z,7.47
2019-06-26T15:15:28.289Z,8.77
2019-06-26T15:17:57.932Z,8.90
2019-06-26T15:20:27.556Z,9.77
2019-06-26T15:22:58.885Z,8.80
2019-06-26T15:25:28.613Z,9.43
2019-06-26T15:27:58.211Z,9.23
2019-06-26T15:30:27.832Z,9.33
2019-06-26T15:32:57.291Z,9.83
2019-06-26T15:35:26.884Z,9.20
2019-06-26T15:37:56.497Z,9.17
2019-06-26T15:40:26.074Z,9.53
2019-06-26T15:42:55.693Z,9.93
2019-06-26T15:45:44.577Z,8.97
2019-06-26T15:48:14.377Z,10.00
2019-06-26T15:50:44.052Z,10.07
2019-06-26T15:53:13.623Z,9.83
2019-06-26T15:55:43.224Z,9.97
2019-06-26T15:58:12.877Z,8.90
2019-06-26T16:00:42.488Z,10.30
2019-06-26T16:03:12.002Z,9.93
2019-06-26T16:05:41.607Z,9.03
2019-06-26T16:08:11.215Z,8.87
2019-06-26T16:10:40.782Z,8.73
2019-06-26T16:13:10.411Z,8.67
2019-06-26T16:15:40.154Z,9.03
2019-06-26T16:18:17.649Z,8.70
2019-06-26T16:20:47.313Z,8.63
2019-06-26T16:23:16.891Z,8.70
2019-06-26T16:25:46.475Z,8.27
2019-06-26T16:28:16.116Z,9.00
2019-06-26T16:30:45.793Z,8.40
2019-06-26T16:33:15.796Z,7.90
2019-06-26T16:35:45.394Z,8.30
2019-06-26T16:38:14.999Z,8.20
2019-06-26T16:40:44.726Z,8.03
2019-06-26T16:43:14.362Z,8.17
2019-06-26T16:45:44.008Z,9.67
2019-06-26T16:48:13.608Z,7.43
2019-06-26T16:50:43.811Z,8.27
2019-06-26T16:53:13.439Z,7.70
2019-06-26T16:55:43.089Z,7.47
2019-06-26T16:58:12.635Z,7.50
2019-06-26T17:00:42.242Z,7.73
2019-06-26T17:03:11.890Z,8.13
2019-06-26T17:05:41.488Z,6.93
2019-06-26T17:08:11.133Z,6.77
2019-06-26T17:10:40.792Z,7.00
2019-06-26T17:13:10.441Z,7.07
2019-06-26T17:15:40.105Z,7.17
2019-06-26T17:18:09.687Z,6.93
2019-06-26T17:20:39.268Z,7.30
2019-06-26T17:23:08.857Z,7.13
2019-06-26T17:25:38.448Z,7.33
2019-06-26T17:28:08.101Z,6.90
2019-06-26T17:30:37.867Z,8.30
2019-06-26T17:33:07.587Z,8.60
2019-06-26T17:35:37.328Z,8.90
2019-06-26T17:38:06.973Z,8.40
2019-06-26T17:40:36.727Z,8.03
2019-06-26T17:43:12.455Z,8.40
2019-06-26T17:45:37.629Z,8.30
2019-06-26T17:48:07.329Z,8.33
2019-06-26T17:50:37.002Z,8.23
2019-06-26T17:53:20.476Z,8.10
2019-06-26T17:55:39.290Z,8.43
2019-06-26T17:58:08.933Z,7.57
2019-06-26T18:00:38.572Z,7.70
2019-06-26T18:03:08.371Z,7.63
2019-06-26T18:05:38.070Z,6.80
2019-06-26T18:08:07.771Z,7.30
2019-06-26T18:10:37.448Z,7.37
2019-06-26T18:13:07.090Z,7.23
2019-06-26T18:15:36.828Z,7.93
2019-06-26T18:18:06.401Z,6.83
2019-06-26T18:20:36.078Z,6.90
2019-06-26T18:23:07.839Z,8.00
2019-06-26T18:25:36.944Z,7.07
2019-06-26T18:28:06.565Z,7.27
2019-06-26T18:30:36.164Z,6.77
2019-06-26T18:33:05.822Z,6.80
2019-06-26T18:35:35.395Z,6.90
2019-06-26T18:38:05.057Z,7.23
2019-06-26T18:40:34.670Z,7.00
2019-06-26T18:43:04.332Z,7.83
2019-06-26T18:45:33.996Z,6.73
2019-06-26T18:48:03.742Z,7.13
2019-06-26T18:50:33.296Z,6.70
2019-06-26T18:53:03.032Z,7.43
2019-06-26T18:55:32.649Z,7.20
2019-06-26T18:58:02.294Z,7.23
2019-06-26T19:00:31.886Z,7.50
2019-06-26T19:03:01.473Z,7.20
2019-06-26T19:05:32.512Z,7.27
2019-06-26T19:08:02.095Z,6.80
2019-06-26T19:10:31.691Z,7.90
2019-06-26T19:13:01.266Z,7.93
2019-06-26T19:15:30.846Z,6.40
2019-06-26T19:18:00.566Z,6.83
2019-06-26T19:20:33.645Z,6.93
2019-06-26T19:23:01.503Z,6.60
2019-06-26T19:25:31.135Z,7.80
2019-06-26T19:28:00.792Z,7.03
2019-06-26T19:30:30.501Z,7.47
2019-06-26T19:33:00.152Z,6.83
2019-06-26T19:35:29.762Z,6.37
2019-06-26T19:37:59.338Z,6.63
2019-06-26T19:40:28.991Z,6.83
2019-06-26T19:42:58.703Z,6.87
2019-06-26T19:45:28.404Z,6.63
2019-06-26T19:47:58.107Z,6.47
2019-06-26T19:50:27.781Z,6.97
2019-06-26T19:52:57.377Z,7.67
2019-06-26T19:55:27.049Z,6.50
2019-06-26T19:57:56.762Z,7.00
2019-06-26T20:00:26.330Z,6.60
2019-06-26T20:02:55.980Z,6.60
2019-06-26T20:05:26.611Z,7.87
2019-06-26T20:07:56.386Z,7.23
2019-06-26T20:10:25.964Z,6.50
2019-06-26T20:12:55.543Z,6.00
2019-06-26T20:15:25.122Z,6.93
2019-06-26T20:17:54.725Z,6.87
2019-06-26T20:20:24.344Z,6.60
2019-06-26T20:22:53.956Z,7.70
2019-06-26T20:25:23.673Z,6.73
2019-06-26T20:27:56.927Z,6.37
2019-06-26T20:30:27.444Z,6.80
2019-06-26T20:32:56.906Z,6.90
2019-06-26T20:35:26.509Z,7.53
2019-06-26T20:38:00.869Z,7.47
2019-06-26T20:40:31.454Z,6.90
2019-06-26T20:43:01.064Z,7.93
2019-06-26T20:45:30.643Z,7.93
2019-06-26T20:48:00.238Z,7.13
2019-06-26T20:50:29.899Z,7.90
2019-06-26T20:52:59.477Z,8.00
2019-06-26T20:55:30.678Z,8.47
2019-06-26T20:58:00.483Z,8.20
2019-06-26T21:00:30.181Z,9.63
2019-06-26T21:02:59.831Z,8.33
2019-06-26T21:05:29.357Z,8.10
2019-06-26T21:07:58.991Z,8.30
2019-06-26T21:10:28.638Z,9.20
2019-06-26T21:12:58.347Z,8.40
2019-06-26T21:15:27.957Z,9.10
2019-06-26T21:17:57.606Z,8.63
2019-06-26T21:20:27.117Z,9.23
2019-06-26T21:22:56.719Z,8.80
2019-06-26T21:25:26.322Z,9.77
2019-06-26T21:27:55.896Z,8.83
2019-06-26T21:30:25.511Z,10.10
2019-06-26T21:32:55.079Z,9.17
2019-06-26T21:35:24.783Z,9.40
2019-06-26T21:37:54.476Z,8.90
2019-06-26T21:40:24.062Z,9.60
2019-06-26T21:42:53.742Z,9.50
2019-06-26T21:45:23.310Z,11.63
2019-06-26T21:47:52.851Z,9.50
2019-06-26T21:50:22.460Z,9.57
2019-06-26T21:52:52.057Z,9.73
2019-06-26T21:55:33.663Z,9.57
2019-06-26T21:58:12.503Z,8.70
2019-06-26T22:01:00.592Z,8.50
2019-06-26T22:03:48.220Z,9.17
2019-06-26T22:06:31.430Z,8.70
2019-06-26T22:09:18.065Z,8.77
2019-06-26T22:11:48.023Z,9.20
2019-06-26T22:14:17.711Z,8.43
2019-06-26T22:16:47.354Z,8.97
2019-06-26T22:19:17.020Z,8.70
2019-06-26T22:21:47.677Z,8.57
2019-06-26T22:24:17.333Z,8.60
2019-06-26T22:26:47.182Z,8.03
2019-06-26T22:29:16.783Z,7.13
2019-06-26T22:31:46.412Z,9.50
2019-06-26T22:34:16.016Z,10.40
2019-06-26T22:36:51.652Z,8.77
2019-06-26T22:39:16.887Z,8.00
2019-06-26T22:41:46.489Z,7.60
2019-06-26T22:44:16.178Z,7.30
2019-06-26T22:46:45.791Z,7.50
2019-06-26T22:49:15.425Z,7.77
2019-06-26T22:51:45.002Z,7.40
2019-06-26T22:54:14.539Z,7.87
2019-06-26T22:56:45.210Z,6.70
2019-06-26T22:59:14.811Z,7.27
2019-06-26T23:01:44.466Z,6.77
2019-06-26T23:04:14.048Z,8.03
2019-06-26T23:06:43.662Z,6.87
2019-06-26T23:09:13.319Z,7.00
2019-06-26T23:11:42.986Z,6.77
2019-06-26T23:14:12.647Z,6.60
2019-06-26T23:16:42.258Z,6.60
2019-06-26T23:19:14.851Z,8.10
2019-06-26T23:21:43.168Z,6.83
2019-06-26T23:24:12.822Z,6.53
2019-06-26T23:26:42.422Z,6.77
2019-06-26T23:29:12.022Z,6.43
2019-06-26T23:31:41.610Z,7.23
2019-06-26T23:34:11.079Z,6.63
2019-06-26T23:36:40.674Z,6.63
2019-06-26T23:39:10.327Z,7.03
2019-06-26T23:41:39.918Z,6.23
2019-06-26T23:44:09.497Z,7.20
2019-06-26T23:46:39.048Z,6.00
2019-06-26T23:49:08.710Z,6.80
2019-06-26T23:51:38.445Z,7.23
2019-06-26T23:54:07.996Z,7.27
2019-06-26T23:56:40.764Z,8.23
2019-06-26T23:59:09.889Z,6.83
